Erie, North Dakota
Current Conditions -  °F | °C
As of 11:53 PM on Saturday 25 Oct 2014 (Local Time) from KFAR Reporting Station
Clear Clear  
Wind Chill: 38°   Ceiling: Unl
Heat Index: 38°   Visibility: 10mi
Dew Point: 25°   Wind: 3mph
Humidity: 60%   Direction: 150°SSE
Pressure: 30.01"   Gusts: NA
Location:  47.12°N, 97.39°W
Report Text: KFAR 260453Z 15003KT 10SM CLR 03/M04 A3001 RMK AO2 SLP167 T00331039
Loading
Personal Weather Stations






























Interactive Weather Map
Tropical Storm Tracking
New forecast layout! Learn more

10-Day Weather Forecast

Advertisements
Track Severe Weather on mobile